createdAt,value
2018-10-11T00:01:02.887Z,99015.00
2018-10-11T00:03:34.870Z,99022.00
2018-10-11T00:06:05.580Z,99024.00
2018-10-11T00:08:36.235Z,99018.00
2018-10-11T00:11:13.948Z,99004.00
2018-10-11T00:13:44.428Z,99008.00
2018-10-11T00:16:14.619Z,99002.00
2018-10-11T00:18:45.119Z,99000.00
2018-10-11T00:21:15.672Z,98996.00
2018-10-11T00:23:46.207Z,98990.00
2018-10-11T00:26:17.188Z,98989.00
2018-10-11T00:28:50.003Z,98987.00
2018-10-11T00:31:20.855Z,98977.00
2018-10-11T00:33:51.232Z,98976.00
2018-10-11T00:36:21.640Z,98979.00
2018-10-11T00:38:51.829Z,98979.00
2018-10-11T00:41:22.006Z,98975.00
2018-10-11T00:43:52.788Z,98974.00
2018-10-11T00:46:23.137Z,98977.00
2018-10-11T00:48:53.846Z,98970.00
2018-10-11T00:51:24.164Z,98972.00
2018-10-11T00:53:54.531Z,98973.00
2018-10-11T00:56:25.142Z,98967.00
2018-10-11T00:58:55.432Z,98964.00
2018-10-11T01:01:25.828Z,98954.00
2018-10-11T01:03:56.342Z,98937.00
2018-10-11T01:06:26.307Z,98946.00
2018-10-11T01:08:57.826Z,98942.00
2018-10-11T01:11:28.774Z,98936.00
2018-10-11T01:13:59.539Z,98937.00
2018-10-11T01:16:30.473Z,98924.00
2018-10-11T01:19:01.519Z,98921.00
2018-10-11T01:21:33.756Z,98915.00
2018-10-11T01:24:04.863Z,98909.00
2018-10-11T01:26:35.897Z,98903.00
2018-10-11T01:29:06.175Z,98898.00
2018-10-11T01:31:36.742Z,98910.00
2018-10-11T01:34:06.740Z,98905.00
2018-10-11T01:36:36.986Z,98897.00
2018-10-11T01:39:07.475Z,98886.00
2018-10-11T01:41:40.074Z,98877.00
2018-10-11T01:44:10.543Z,98888.00
2018-10-11T01:46:40.749Z,98881.00
2018-10-11T01:49:11.830Z,98877.00
2018-10-11T01:51:42.497Z,98864.00
2018-10-11T01:54:12.906Z,98877.00
2018-10-11T01:56:43.071Z,98876.00
2018-10-11T01:59:13.490Z,98872.00
2018-10-11T02:01:44.070Z,98864.00
2018-10-11T02:04:14.472Z,98861.00
2018-10-11T02:06:44.645Z,98855.00
2018-10-11T02:09:15.225Z,98857.00
2018-10-11T02:11:46.037Z,98861.00
2018-10-11T02:14:16.693Z,98861.00
2018-10-11T02:16:46.968Z,98856.00
2018-10-11T02:19:17.603Z,98853.00
2018-10-11T02:21:48.711Z,98855.00
2018-10-11T02:24:19.384Z,98854.00
2018-10-11T02:26:50.023Z,98857.00
2018-10-11T02:29:20.334Z,98852.00
2018-10-11T02:31:51.803Z,98851.00
2018-10-11T02:34:21.895Z,98846.00
2018-10-11T02:36:52.321Z,98853.00
2018-10-11T02:39:24.319Z,98852.00
2018-10-11T02:41:54.411Z,98852.00
2018-10-11T02:44:24.307Z,98845.00
2018-10-11T02:46:54.343Z,98846.00
2018-10-11T02:49:25.846Z,98838.00
2018-10-11T02:51:57.224Z,98832.00
2018-10-11T02:54:29.565Z,98823.00
2018-10-11T02:57:04.624Z,98831.00
2018-10-11T02:59:38.331Z,98825.00
2018-10-11T03:02:14.583Z,98827.00
2018-10-11T03:04:46.161Z,98842.00
2018-10-11T03:07:17.383Z,98832.00
2018-10-11T03:09:48.407Z,98834.00
2018-10-11T03:12:18.807Z,98824.00
2018-10-11T03:14:48.911Z,98847.00
2018-10-11T03:17:19.181Z,98844.00
2018-10-11T03:19:49.675Z,98829.00
2018-10-11T03:22:20.038Z,98838.00
2018-10-11T03:24:50.033Z,98836.00
2018-10-11T03:27:22.563Z,98830.00
2018-10-11T03:29:53.638Z,98826.00
2018-10-11T03:32:26.695Z,98828.00
2018-10-11T03:34:57.342Z,98824.00
2018-10-11T03:37:27.368Z,98829.00
2018-10-11T03:39:57.500Z,98824.00
2018-10-11T03:42:30.301Z,98812.00
2018-10-11T03:45:02.548Z,98808.00
2018-10-11T03:47:32.700Z,98794.00
2018-10-11T03:50:02.687Z,98803.00
2018-10-11T03:52:33.564Z,98797.00
2018-10-11T03:55:04.811Z,98792.00
2018-10-11T03:57:37.369Z,98791.00
2018-10-11T04:00:10.159Z,98788.00
2018-10-11T04:02:41.102Z,98794.00
2018-10-11T04:05:12.159Z,98796.00
2018-10-11T04:07:43.011Z,98803.00
2018-10-11T04:10:15.172Z,98797.00
2018-10-11T04:12:45.630Z,98793.00
2018-10-11T04:15:16.200Z,98792.00
2018-10-11T04:17:46.310Z,98788.00
2018-10-11T04:20:16.503Z,98784.00
2018-10-11T04:22:46.614Z,98778.00
2018-10-11T04:25:16.804Z,98788.00
2018-10-11T04:27:46.700Z,98775.00
2018-10-11T04:30:16.790Z,98778.00
2018-10-11T04:32:46.837Z,98776.00
2018-10-11T04:35:16.780Z,98778.00
2018-10-11T04:37:46.700Z,98786.00
2018-10-11T04:40:18.152Z,98787.00
2018-10-11T04:42:49.239Z,98781.00
2018-10-11T04:45:19.466Z,98787.00
2018-10-11T04:47:49.540Z,98786.00
2018-10-11T04:50:19.988Z,98782.00
2018-10-11T04:52:49.951Z,98772.00
2018-10-11T04:55:20.101Z,98769.00
2018-10-11T04:57:50.100Z,98773.00
2018-10-11T05:00:25.760Z,98761.00
2018-10-11T05:02:58.563Z,98765.00
2018-10-11T05:05:28.831Z,98755.00
2018-10-11T05:07:59.368Z,98763.00
2018-10-11T05:10:29.859Z,98752.00
2018-10-11T05:13:01.511Z,98767.00
2018-10-11T05:15:32.341Z,98764.00
2018-10-11T05:18:02.598Z,98749.00
2018-10-11T05:20:32.667Z,98730.00
2018-10-11T05:23:02.743Z,98737.00
2018-10-11T05:25:33.052Z,98735.00
2018-10-11T05:28:03.446Z,98738.00
2018-10-11T05:30:34.106Z,98731.00
2018-10-11T05:33:04.611Z,98750.00
2018-10-11T05:35:34.716Z,98756.00
2018-10-11T05:38:05.293Z,98764.00
2018-10-11T05:40:35.612Z,98780.00
2018-10-11T05:43:06.010Z,98779.00
2018-10-11T05:45:37.588Z,98781.00
2018-10-11T05:48:07.876Z,98764.00
2018-10-11T05:50:38.211Z,98771.00
2018-10-11T05:53:08.548Z,98771.00
2018-10-11T05:55:38.949Z,98780.00
2018-10-11T05:58:09.194Z,98787.00
2018-10-11T06:00:39.639Z,98787.00
2018-10-11T06:03:09.802Z,98773.00
2018-10-11T06:05:40.112Z,98782.00
2018-10-11T06:08:10.855Z,98792.00
2018-10-11T06:10:42.843Z,98800.00
2018-10-11T06:13:13.445Z,98802.00
2018-10-11T06:15:43.887Z,98802.00
2018-10-11T06:18:15.081Z,98804.00
2018-10-11T06:20:48.390Z,98800.00
2018-10-11T06:23:25.062Z,98804.00
2018-10-11T06:25:55.208Z,98798.00
2018-10-11T06:28:25.634Z,98800.00
2018-10-11T06:30:55.832Z,98802.00
2018-10-11T06:33:26.115Z,98793.00
2018-10-11T06:35:57.234Z,98791.00
2018-10-11T06:38:28.395Z,98780.00
2018-10-11T06:40:59.730Z,98778.00
2018-10-11T06:43:30.041Z,98793.00
2018-10-11T06:46:00.677Z,98803.00
2018-10-11T06:48:31.898Z,98817.00
2018-10-11T06:51:09.133Z,98809.00
2018-10-11T06:53:40.501Z,98802.00
2018-10-11T06:56:10.884Z,98813.00
2018-10-11T06:58:40.927Z,98815.00
2018-10-11T07:01:11.546Z,98810.00
2018-10-11T07:03:41.757Z,98806.00
2018-10-11T07:06:12.085Z,98791.00
2018-10-11T07:08:42.565Z,98792.00
2018-10-11T07:11:13.012Z,98780.00
2018-10-11T07:13:44.973Z,98784.00
2018-10-11T07:16:15.236Z,98780.00
2018-10-11T07:18:45.551Z,98786.00
2018-10-11T07:21:15.809Z,98783.00
2018-10-11T07:23:46.046Z,98792.00
2018-10-11T07:26:16.172Z,98810.00
2018-10-11T07:28:46.510Z,98821.00
2018-10-11T07:31:16.895Z,98832.00
2018-10-11T07:33:47.099Z,98827.00
2018-10-11T07:36:17.172Z,98834.00
2018-10-11T07:38:47.672Z,98827.00
2018-10-11T07:41:17.914Z,98844.00
2018-10-11T07:43:48.037Z,98839.00
2018-10-11T07:46:18.688Z,98835.00
2018-10-11T07:48:48.883Z,98829.00
2018-10-11T07:51:19.324Z,98840.00
2018-10-11T07:53:49.985Z,98843.00
2018-10-11T07:56:20.136Z,98843.00
2018-10-11T07:58:50.689Z,98851.00
2018-10-11T08:01:21.479Z,98842.00
2018-10-11T08:03:52.084Z,98842.00
2018-10-11T08:06:22.210Z,98833.00
2018-10-11T08:08:52.949Z,98834.00
2018-10-11T08:11:23.610Z,98838.00
2018-10-11T08:13:53.870Z,98836.00
2018-10-11T08:16:24.235Z,98830.00
2018-10-11T08:18:55.141Z,98814.00
2018-10-11T08:21:26.138Z,98822.00
2018-10-11T08:23:56.190Z,98811.00
2018-10-11T08:26:26.686Z,98807.00
2018-10-11T08:28:56.324Z,98814.00
2018-10-11T08:31:33.446Z,98812.00
2018-10-11T08:34:03.562Z,98819.00
2018-10-11T08:36:33.787Z,98821.00
2018-10-11T08:39:05.404Z,98820.00
2018-10-11T08:41:36.661Z,98826.00
2018-10-11T08:44:07.391Z,98809.00
2018-10-11T08:46:37.998Z,98805.00
2018-10-11T08:49:11.208Z,98805.00
2018-10-11T08:51:41.289Z,98795.00
2018-10-11T08:54:17.036Z,98797.00
2018-10-11T08:56:47.451Z,98784.00
2018-10-11T08:59:17.733Z,98780.00
2018-10-11T09:04:15.759Z,98768.00
2018-10-11T09:06:45.956Z,98755.00
2018-10-11T09:09:16.290Z,98768.00
2018-10-11T09:11:46.472Z,98782.00
2018-10-11T09:14:16.711Z,98775.00
2018-10-11T09:16:46.913Z,98792.00
2018-10-11T09:19:17.739Z,98807.00
2018-10-11T09:21:48.103Z,98807.00
2018-10-11T09:24:18.193Z,98802.00
2018-10-11T09:26:48.476Z,98788.00
2018-10-11T09:29:18.767Z,98800.00
2018-10-11T09:31:48.860Z,98822.00
2018-10-11T09:34:19.100Z,98806.00
2018-10-11T09:36:49.186Z,98800.00
2018-10-11T09:39:19.386Z,98818.00
2018-10-11T09:41:49.763Z,98825.00
2018-10-11T09:44:20.172Z,98823.00
2018-10-11T09:46:50.758Z,98835.00
2018-10-11T09:49:21.940Z,98830.00
2018-10-11T09:51:52.331Z,98845.00
2018-10-11T09:54:22.604Z,98851.00
2018-10-11T09:57:33.557Z,98848.00
2018-10-11T10:00:09.419Z,98842.00
2018-10-11T10:02:40.971Z,98844.00
2018-10-11T10:23:13.068Z,98848.00
2018-10-11T10:25:43.657Z,98845.00
2018-10-11T10:28:14.095Z,98850.00
2018-10-11T10:30:49.308Z,98833.00
2018-10-11T10:33:19.391Z,98844.00
2018-10-11T10:35:49.621Z,98839.00
2018-10-11T10:38:20.309Z,98838.00
2018-10-11T10:40:51.018Z,98836.00
2018-10-11T10:43:21.835Z,98841.00
2018-10-11T10:45:52.553Z,98833.00
2018-10-11T10:48:22.818Z,98826.00
2018-10-11T10:50:54.101Z,98829.00
2018-10-11T10:53:25.402Z,98835.00
2018-10-11T10:55:56.788Z,98829.00
2018-10-11T10:58:29.291Z,98823.00
2018-10-11T11:01:00.368Z,98828.00
2018-10-11T11:03:30.432Z,98828.00
2018-10-11T11:06:00.733Z,98825.00
2018-10-11T11:08:30.907Z,98827.00
2018-10-11T11:11:01.860Z,98833.00
2018-10-11T11:13:32.321Z,98827.00
2018-10-11T11:16:02.951Z,98823.00
2018-10-11T11:18:33.693Z,98824.00
2018-10-11T11:21:03.918Z,98815.00
2018-10-11T11:23:34.085Z,98806.00
2018-10-11T11:26:05.242Z,98806.00
2018-10-11T11:28:35.700Z,98797.00
2018-10-11T11:31:05.909Z,98809.00
2018-10-11T11:33:36.165Z,98805.00
2018-10-11T11:36:06.410Z,98793.00
2018-10-11T11:38:36.604Z,98797.00
2018-10-11T11:41:06.776Z,98799.00
2018-10-11T11:43:37.116Z,98796.00
2018-10-11T11:46:08.043Z,98783.00
2018-10-11T11:48:38.164Z,98785.00
2018-10-11T11:51:09.424Z,98778.00
2018-10-11T11:53:40.745Z,98771.00
2018-10-11T11:56:11.413Z,98769.00
2018-10-11T11:58:42.150Z,98759.00
2018-10-11T12:01:12.921Z,98751.00
2018-10-11T12:03:49.982Z,98762.00
2018-10-11T12:06:20.271Z,98747.00
2018-10-11T12:08:50.736Z,98739.00
2018-10-11T12:11:20.918Z,98748.00
2018-10-11T12:13:52.619Z,98755.00
2018-10-11T12:16:22.904Z,98754.00
2018-10-11T12:18:53.238Z,98744.00
2018-10-11T12:21:23.319Z,98727.00
2018-10-11T12:23:54.326Z,98740.00
2018-10-11T12:26:25.440Z,98723.00
2018-10-11T12:28:55.881Z,98727.00
2018-10-11T12:31:26.285Z,98715.00
2018-10-11T12:33:56.401Z,98730.00
2018-10-11T12:36:26.652Z,98727.00
2018-10-11T12:38:57.228Z,98720.00
2018-10-11T12:41:27.286Z,98711.00
2018-10-11T12:43:57.949Z,98698.00
2018-10-11T12:46:32.076Z,98704.00
2018-10-11T12:49:00.748Z,98686.00
2018-10-11T12:51:31.196Z,98699.00
2018-10-11T12:54:01.397Z,98688.00
2018-10-11T12:56:31.922Z,98684.00
2018-10-11T12:59:01.986Z,98687.00
2018-10-11T13:01:32.493Z,98698.00
2018-10-11T13:04:02.574Z,98702.00
2018-10-11T13:06:33.016Z,98697.00
2018-10-11T13:09:03.429Z,98694.00
2018-10-11T13:11:33.907Z,98703.00
2018-10-11T13:14:04.397Z,98718.00
2018-10-11T13:16:35.306Z,98695.00
2018-10-11T13:19:05.766Z,98698.00
2018-10-11T13:21:36.569Z,98689.00
2018-10-11T13:24:06.855Z,98684.00
2018-10-11T13:26:37.112Z,98689.00
2018-10-11T13:29:07.475Z,98669.00
2018-10-11T13:31:37.768Z,98675.00
2018-10-11T13:34:08.609Z,98681.00
2018-10-11T13:36:39.756Z,98676.00
2018-10-11T13:39:11.051Z,98665.00
2018-10-11T13:41:41.684Z,98689.00
2018-10-11T13:44:11.893Z,98682.00
2018-10-11T13:46:42.336Z,98690.00
2018-10-11T13:49:12.829Z,98694.00
2018-10-11T13:51:43.610Z,98686.00
2018-10-11T13:54:17.566Z,98687.00
2018-10-11T13:56:57.007Z,98701.00
2018-10-11T13:59:21.443Z,98696.00
2018-10-11T14:01:51.715Z,98701.00
2018-10-11T14:04:23.085Z,98714.00
2018-10-11T14:06:54.180Z,98712.00
2018-10-11T14:09:24.578Z,98720.00
2018-10-11T14:11:54.669Z,98702.00
2018-10-11T14:14:25.237Z,98715.00
2018-10-11T14:16:55.534Z,98694.00
2018-10-11T14:19:25.848Z,98717.00
2018-10-11T14:21:56.235Z,98701.00
2018-10-11T14:24:27.259Z,98723.00
2018-10-11T14:26:57.513Z,98736.00
2018-10-11T14:29:27.692Z,98731.00
2018-10-11T14:32:04.788Z,98738.00
2018-10-11T14:34:35.291Z,98728.00
2018-10-11T14:37:05.957Z,98736.00
2018-10-11T14:39:36.341Z,98722.00
2018-10-11T14:42:06.592Z,98725.00
2018-10-11T14:44:36.954Z,98726.00
2018-10-11T14:47:07.114Z,98740.00
2018-10-11T14:49:37.434Z,98742.00
2018-10-11T14:52:08.041Z,98738.00
2018-10-11T14:54:38.320Z,98747.00
2018-10-11T14:57:08.692Z,98747.00
2018-10-11T14:59:39.917Z,98741.00
2018-10-11T15:02:11.076Z,98736.00
2018-10-11T15:04:41.302Z,98749.00
2018-10-11T15:07:11.525Z,98753.00
2018-10-11T15:09:41.881Z,98742.00
2018-10-11T15:12:11.899Z,98734.00
2018-10-11T15:14:42.263Z,98743.00
2018-10-11T15:17:12.471Z,98757.00
2018-10-11T15:19:42.871Z,98754.00
2018-10-11T15:22:13.643Z,98761.00
2018-10-11T15:24:43.993Z,98764.00
2018-10-11T15:27:14.579Z,98759.00
2018-10-11T15:29:45.099Z,98759.00
2018-10-11T15:32:16.126Z,98759.00
2018-10-11T15:34:46.526Z,98770.00
2018-10-11T15:37:17.139Z,98775.00
2018-10-11T15:39:48.032Z,98762.00
2018-10-11T15:42:18.322Z,98759.00
2018-10-11T15:44:48.548Z,98763.00
2018-10-11T15:47:19.324Z,98774.00
2018-10-11T15:49:49.554Z,98785.00
2018-10-11T15:52:20.031Z,98788.00
2018-10-11T15:54:51.329Z,98781.00
2018-10-11T15:57:21.460Z,98784.00
2018-10-11T15:59:51.859Z,98791.00
2018-10-11T16:02:21.957Z,98794.00
2018-10-11T16:04:52.267Z,98788.00
2018-10-11T16:07:22.719Z,98802.00
2018-10-11T16:09:53.027Z,98795.00
2018-10-11T16:12:23.185Z,98810.00
2018-10-11T16:14:53.724Z,98794.00
2018-10-11T16:17:23.926Z,98797.00
2018-10-11T16:19:54.596Z,98805.00
2018-10-11T16:22:24.851Z,98797.00
2018-10-11T16:24:55.312Z,98793.00
2018-10-11T16:27:25.510Z,98799.00
2018-10-11T16:29:56.098Z,98783.00
2018-10-11T16:32:26.650Z,98800.00
2018-10-11T16:34:56.752Z,98796.00
2018-10-11T16:37:27.646Z,98810.00
2018-10-11T16:39:57.889Z,98809.00
2018-10-11T16:42:27.990Z,98807.00
2018-10-11T16:44:58.149Z,98821.00
2018-10-11T16:47:29.374Z,98821.00
2018-10-11T16:49:59.697Z,98837.00
2018-10-11T16:52:30.675Z,98825.00
2018-10-11T16:55:00.914Z,98827.00
2018-10-11T16:57:32.628Z,98825.00
2018-10-11T17:00:04.100Z,98844.00
2018-10-11T17:02:34.637Z,98849.00
2018-10-11T17:05:05.343Z,98859.00
2018-10-11T17:07:35.559Z,98848.00
2018-10-11T17:10:06.960Z,98861.00
2018-10-11T17:12:37.713Z,98863.00
2018-10-11T17:15:08.583Z,98866.00
2018-10-11T17:17:41.570Z,98858.00
2018-10-11T17:20:12.091Z,98864.00
2018-10-11T17:22:42.344Z,98874.00
2018-10-11T17:25:12.576Z,98873.00
2018-10-11T17:27:43.176Z,98874.00
2018-10-11T17:30:14.766Z,98876.00
2018-10-11T17:32:45.385Z,98892.00
2018-10-11T17:35:15.901Z,98881.00
2018-10-11T17:37:47.235Z,98884.00
2018-10-11T17:40:17.787Z,98879.00
2018-10-11T17:42:48.475Z,98882.00
2018-10-11T17:45:19.590Z,98884.00
2018-10-11T17:47:50.042Z,98900.00
2018-10-11T17:50:21.000Z,98910.00
2018-10-11T17:52:57.879Z,98911.00
2018-10-11T17:55:28.374Z,98915.00
2018-10-11T17:57:59.011Z,98919.00
2018-10-11T18:00:29.947Z,98919.00
2018-10-11T18:03:00.345Z,98909.00
2018-10-11T18:05:31.100Z,98905.00
2018-10-11T18:08:01.879Z,98900.00
2018-10-11T18:10:33.058Z,98913.00
2018-10-11T18:13:03.817Z,98899.00
2018-10-11T18:15:35.487Z,98913.00
2018-10-11T18:18:07.205Z,98922.00
2018-10-11T18:20:39.205Z,98913.00
2018-10-11T18:23:10.740Z,98913.00
2018-10-11T18:25:41.482Z,98915.00
2018-10-11T18:28:12.389Z,98916.00
2018-10-11T18:30:42.911Z,98918.00
2018-10-11T18:33:13.738Z,98915.00
2018-10-11T18:35:44.240Z,98914.00
2018-10-11T18:38:14.464Z,98909.00
2018-10-11T18:40:45.113Z,98908.00
2018-10-11T18:43:16.111Z,98917.00
2018-10-11T18:45:47.283Z,98925.00
2018-10-11T18:48:18.788Z,98917.00
2018-10-11T18:50:50.214Z,98937.00
2018-10-11T18:53:20.997Z,98934.00
2018-10-11T18:55:51.328Z,98945.00
2018-10-11T18:58:21.615Z,98957.00
2018-10-11T19:00:52.286Z,98949.00
2018-10-11T19:03:23.508Z,98946.00
2018-10-11T19:05:53.740Z,98955.00
2018-10-11T19:08:23.773Z,98957.00
2018-10-11T19:10:54.154Z,98946.00
2018-10-11T19:13:26.355Z,98964.00
2018-10-11T19:15:57.045Z,98959.00
2018-10-11T19:18:27.701Z,98950.00
2018-10-11T19:20:58.267Z,98963.00
2018-10-11T19:23:29.709Z,98959.00
2018-10-11T19:25:59.818Z,98963.00
2018-10-11T19:28:31.578Z,98966.00
2018-10-11T19:31:03.741Z,98970.00
2018-10-11T19:33:34.641Z,98968.00
2018-10-11T19:36:04.689Z,98980.00
2018-10-11T19:38:34.903Z,98975.00
2018-10-11T19:41:05.830Z,98985.00
2018-10-11T19:43:35.971Z,99001.00
2018-10-11T19:46:06.445Z,99008.00
2018-10-11T19:48:36.642Z,99011.00
2018-10-11T19:51:07.060Z,99031.00
2018-10-11T19:53:38.017Z,99054.00
2018-10-11T19:56:08.249Z,99062.00
2018-10-11T19:58:38.580Z,99076.00
2018-10-11T20:01:08.639Z,99068.00
2018-10-11T20:03:38.644Z,99073.00
2018-10-11T20:06:08.912Z,99081.00
2018-10-11T20:08:39.169Z,99082.00
2018-10-11T20:11:09.616Z,99084.00
2018-10-11T20:13:39.831Z,99075.00
2018-10-11T20:16:10.144Z,99069.00
2018-10-11T20:18:40.741Z,99081.00
2018-10-11T20:21:12.057Z,99096.00
2018-10-11T20:23:42.119Z,99089.00
2018-10-11T20:26:12.496Z,99095.00
2018-10-11T20:28:42.608Z,99086.00
2018-10-11T20:31:13.632Z,99083.00
2018-10-11T20:33:43.793Z,99087.00
2018-10-11T20:36:14.529Z,99072.00
2018-10-11T20:38:50.250Z,99073.00
2018-10-11T20:41:20.531Z,99085.00
2018-10-11T20:43:52.197Z,99085.00
2018-10-11T20:46:22.307Z,99082.00
2018-10-11T20:50:01.046Z,99083.00
2018-10-11T20:52:36.222Z,99087.00
2018-10-11T20:55:06.572Z,99097.00
2018-10-11T20:57:36.808Z,99089.00
2018-10-11T21:00:08.718Z,99106.00
2018-10-11T21:02:38.940Z,99109.00
2018-10-11T21:05:09.360Z,99105.00
2018-10-11T21:07:40.656Z,99106.00
2018-10-11T21:10:11.307Z,99111.00
2018-10-11T21:12:41.601Z,99116.00
2018-10-11T21:15:11.818Z,99115.00
2018-10-11T21:17:43.870Z,99117.00
2018-10-11T21:20:14.125Z,99123.00
2018-10-11T21:22:44.407Z,99123.00
2018-10-11T21:25:14.902Z,99125.00
2018-10-11T21:27:44.898Z,99128.00
2018-10-11T21:30:15.265Z,99122.00
2018-10-11T21:32:45.597Z,99125.00
2018-10-11T21:35:17.189Z,99121.00
2018-10-11T21:37:49.270Z,99105.00
2018-10-11T21:40:19.872Z,99119.00
2018-10-11T21:42:51.457Z,99118.00
2018-10-11T21:45:21.832Z,99120.00
2018-10-11T21:47:52.428Z,99122.00
2018-10-11T21:50:23.101Z,99132.00
2018-10-11T21:52:53.271Z,99127.00
2018-10-11T22:13:25.832Z,99146.00
2018-10-11T22:15:56.276Z,99154.00
2018-10-11T22:18:26.350Z,99152.00
2018-10-11T22:20:56.501Z,99165.00
2018-10-11T22:23:27.292Z,99164.00
2018-10-11T22:25:57.539Z,99169.00
2018-10-11T22:28:27.829Z,99177.00
2018-10-11T22:30:57.976Z,99173.00
2018-10-11T22:33:28.627Z,99172.00
2018-10-11T22:35:59.180Z,99188.00
2018-10-11T22:38:29.742Z,99185.00
2018-10-11T22:41:01.553Z,99172.00
2018-10-11T22:43:31.667Z,99167.00
2018-10-11T22:46:04.286Z,99165.00
2018-10-11T22:48:34.589Z,99159.00
2018-10-11T22:51:05.451Z,99166.00
2018-10-11T22:53:35.997Z,99175.00
2018-10-11T22:56:06.404Z,99172.00
2018-10-11T22:58:36.677Z,99165.00
2018-10-11T23:01:07.168Z,99160.00
2018-10-11T23:03:37.641Z,99164.00
2018-10-11T23:06:07.815Z,99152.00
2018-10-11T23:08:37.842Z,99161.00
2018-10-11T23:11:08.162Z,99175.00
2018-10-11T23:13:38.628Z,99156.00
2018-10-11T23:16:09.587Z,99152.00
2018-10-11T23:18:40.628Z,99153.00
2018-10-11T23:21:11.368Z,99150.00
2018-10-11T23:23:43.523Z,99160.00
2018-10-11T23:26:14.109Z,99154.00
2018-10-11T23:28:44.639Z,99152.00
2018-10-11T23:31:21.607Z,99148.00
2018-10-11T23:33:52.244Z,99164.00
2018-10-11T23:36:22.764Z,99161.00
2018-10-11T23:38:52.862Z,99164.00
2018-10-11T23:41:23.722Z,99165.00
2018-10-11T23:43:53.819Z,99161.00
2018-10-11T23:46:24.449Z,99155.00
2018-10-11T23:48:54.530Z,99150.00
2018-10-11T23:51:24.727Z,99152.00
2018-10-11T23:53:54.997Z,99141.00
2018-10-11T23:56:25.581Z,99134.00
2018-10-11T23:58:56.035Z,99133.00
